createdAt,value
2018-12-05T00:00:27.424Z,147.45
2018-12-05T00:00:58.543Z,145.38
2018-12-05T00:01:29.661Z,149.55
2018-12-05T00:02:00.784Z,154.60
2018-12-05T00:02:31.912Z,157.20
2018-12-05T00:03:03.047Z,160.22
2018-12-05T00:03:34.169Z,155.48
2018-12-05T00:04:05.327Z,160.12
2018-12-05T00:04:36.445Z,149.55
2018-12-05T00:05:07.579Z,161.50
2018-12-05T00:05:38.701Z,154.95
2018-12-05T00:06:09.817Z,148.95
2018-12-05T00:06:40.932Z,148.10
2018-12-05T00:07:12.113Z,147.15
2018-12-05T00:07:43.273Z,148.90
2018-12-05T00:08:14.390Z,151.20
2018-12-05T00:08:45.518Z,151.10
2018-12-05T00:09:16.636Z,145.38
2018-12-05T00:09:47.757Z,147.10
2018-12-05T00:10:18.878Z,146.05
2018-12-05T00:10:49.997Z,149.10
2018-12-05T00:11:21.118Z,154.20
2018-12-05T00:11:52.233Z,146.70
2018-12-05T00:12:23.384Z,152.05
2018-12-05T00:12:54.513Z,149.18
2018-12-05T00:13:25.665Z,150.40
2018-12-05T00:13:56.799Z,157.27
2018-12-05T00:14:27.962Z,154.93
2018-12-05T00:14:59.085Z,161.37
2018-12-05T00:15:30.236Z,161.70
2018-12-05T00:16:01.383Z,159.35
2018-12-05T00:16:32.521Z,158.85
2018-12-05T00:17:03.633Z,170.28
2018-12-05T00:17:34.750Z,165.50
2018-12-05T00:18:05.865Z,153.50
2018-12-05T00:18:37.015Z,149.40
2018-12-05T00:19:08.132Z,153.15
2018-12-05T00:19:39.301Z,147.93
2018-12-05T00:20:10.418Z,149.90
2018-12-05T00:20:41.542Z,148.82
2018-12-05T00:21:12.675Z,154.72
2018-12-05T00:21:43.795Z,161.73
2018-12-05T00:22:14.925Z,145.17
2018-12-05T00:22:46.051Z,149.50
2018-12-05T00:23:17.159Z,146.90
2018-12-05T00:23:48.271Z,150.95
2018-12-05T00:24:19.394Z,154.82
2018-12-05T00:24:51.215Z,143.32
2018-12-05T00:25:22.379Z,138.50
2018-12-05T00:25:53.488Z,135.05
2018-12-05T00:26:24.601Z,136.12
2018-12-05T00:26:55.721Z,130.52
2018-12-05T00:27:26.834Z,133.37
2018-12-05T00:27:57.946Z,134.72
2018-12-05T00:28:29.071Z,135.03
2018-12-05T00:29:00.177Z,138.43
2018-12-05T00:29:31.290Z,139.80
2018-12-05T00:30:02.444Z,135.30
2018-12-05T00:30:33.565Z,138.77
2018-12-05T00:31:04.680Z,135.65
2018-12-05T00:31:35.791Z,133.20
2018-12-05T00:32:06.940Z,121.07
2018-12-05T00:32:38.095Z,125.53
2018-12-05T00:33:09.216Z,128.10
2018-12-05T00:33:40.425Z,121.57
2018-12-05T00:34:11.689Z,115.50
2018-12-05T00:34:42.797Z,115.57
2018-12-05T00:35:13.953Z,121.42
2018-12-05T00:35:45.182Z,115.47
2018-12-05T00:36:16.298Z,115.22
2018-12-05T00:36:47.428Z,115.30
2018-12-05T00:37:18.557Z,121.62
2018-12-05T00:37:49.661Z,114.12
2018-12-05T00:38:20.786Z,117.67
2018-12-05T00:38:51.910Z,115.08
2018-12-05T00:39:23.034Z,122.78
2018-12-05T00:39:54.186Z,116.37
2018-12-05T00:40:25.294Z,117.50
2018-12-05T00:40:56.396Z,121.70
2018-12-05T00:41:27.549Z,121.20
2018-12-05T00:41:58.716Z,122.25
2018-12-05T00:42:29.833Z,128.42
2018-12-05T00:43:00.950Z,126.30
2018-12-05T00:43:32.066Z,130.43
2018-12-05T00:44:03.176Z,128.30
2018-12-05T00:44:34.280Z,139.18
2018-12-05T00:45:05.405Z,129.60
2018-12-05T00:45:36.519Z,132.40
2018-12-05T00:46:07.637Z,120.55
2018-12-05T00:46:38.754Z,116.75
2018-12-05T00:47:09.906Z,112.17
2018-12-05T00:47:42.235Z,111.88
2018-12-05T00:48:13.351Z,110.37
2018-12-05T00:48:44.464Z,113.20
2018-12-05T00:49:15.581Z,102.58
2018-12-05T00:49:46.703Z,112.15
2018-12-05T00:50:17.817Z,105.65
2018-12-05T00:50:48.925Z,98.95
2018-12-05T00:51:20.087Z,100.27
2018-12-05T00:51:51.199Z,102.27
2018-12-05T00:52:22.324Z,103.65
2018-12-05T00:52:53.423Z,114.97
2018-12-05T00:53:24.559Z,109.65
2018-12-05T00:53:55.669Z,108.52
2018-12-05T00:54:26.900Z,106.70
2018-12-05T00:54:57.999Z,109.83
2018-12-05T00:55:29.155Z,106.05
2018-12-05T00:56:00.260Z,115.17
2018-12-05T00:56:31.397Z,113.97
2018-12-05T00:57:02.536Z,117.93
2018-12-05T00:57:33.644Z,112.05
2018-12-05T00:58:04.761Z,110.92
2018-12-05T00:58:35.907Z,113.47
2018-12-05T00:59:07.021Z,116.97
2018-12-05T00:59:38.189Z,112.45
2018-12-05T01:00:09.304Z,121.10
2018-12-05T01:00:40.402Z,111.90
2018-12-05T01:01:11.516Z,109.07
2018-12-05T01:01:42.621Z,123.00
2018-12-05T01:02:13.749Z,123.13
2018-12-05T01:02:44.853Z,130.47
2018-12-05T01:03:16.000Z,132.95
2018-12-05T01:03:47.105Z,135.35
2018-12-05T01:04:18.221Z,122.45
2018-12-05T01:04:49.326Z,120.85
2018-12-05T01:05:20.477Z,120.00
2018-12-05T01:05:51.577Z,117.85
2018-12-05T01:06:22.708Z,116.88
2018-12-05T01:06:53.817Z,114.80
2018-12-05T01:07:24.931Z,116.15
2018-12-05T01:07:56.024Z,110.95
2018-12-05T01:08:27.124Z,108.32
2018-12-05T01:08:58.228Z,111.65
2018-12-05T01:09:29.329Z,108.57
2018-12-05T01:10:00.434Z,106.75
2018-12-05T01:10:31.580Z,114.12
2018-12-05T01:11:02.681Z,122.02
2018-12-05T01:11:33.794Z,116.37
2018-12-05T01:12:04.910Z,120.28
2018-12-05T01:12:36.634Z,119.97
2018-12-05T01:13:07.734Z,120.55
2018-12-05T01:13:38.843Z,123.25
2018-12-05T01:14:09.945Z,118.20
2018-12-05T01:14:41.036Z,118.42
2018-12-05T01:15:12.153Z,124.80
2018-12-05T01:15:43.333Z,119.87
2018-12-05T01:16:14.485Z,121.05
2018-12-05T01:16:45.646Z,123.92
2018-12-05T01:17:16.764Z,126.70
2018-12-05T01:17:47.870Z,127.27
2018-12-05T01:18:18.972Z,128.53
2018-12-05T01:18:50.122Z,132.95
2018-12-05T01:19:21.927Z,133.75
2018-12-05T01:19:53.030Z,138.52
2018-12-05T01:20:24.125Z,136.10
2018-12-05T01:20:55.233Z,143.02
2018-12-05T01:21:26.347Z,141.15
2018-12-05T01:21:57.486Z,146.25
2018-12-05T01:22:28.584Z,137.92
2018-12-05T01:22:59.736Z,138.45
2018-12-05T01:23:30.844Z,135.68
2018-12-05T01:24:01.965Z,126.45
2018-12-05T01:24:33.073Z,132.80
2018-12-05T01:25:04.199Z,129.53
2018-12-05T01:25:35.338Z,131.78
2018-12-05T01:26:06.476Z,131.05
2018-12-05T01:26:37.581Z,129.30
2018-12-05T01:27:09.821Z,135.85
2018-12-05T01:27:40.941Z,133.95
2018-12-05T01:28:12.098Z,134.75
2018-12-05T01:28:43.208Z,136.85
2018-12-05T01:29:14.357Z,130.03
2018-12-05T01:29:45.499Z,135.82
2018-12-05T01:30:16.736Z,131.37
2018-12-05T01:30:47.883Z,131.32
2018-12-05T01:31:18.977Z,135.15
2018-12-05T01:31:50.086Z,122.70
2018-12-05T01:32:21.223Z,122.00
2018-12-05T01:32:52.330Z,125.05
2018-12-05T01:33:23.459Z,124.45
2018-12-05T01:33:54.590Z,122.78
2018-12-05T01:34:25.697Z,124.53
2018-12-05T01:34:56.822Z,124.22
2018-12-05T01:35:27.937Z,126.47
2018-12-05T01:35:59.056Z,134.37
2018-12-05T01:36:30.165Z,130.75
2018-12-05T01:37:01.321Z,130.65
2018-12-05T01:37:32.444Z,132.05
2018-12-05T01:38:03.561Z,134.57
2018-12-05T01:38:34.684Z,126.58
2018-12-05T01:39:05.789Z,135.63
2018-12-05T01:39:36.893Z,126.72
2018-12-05T01:40:07.997Z,131.30
2018-12-05T01:40:39.518Z,123.80
2018-12-05T01:41:10.617Z,125.33
2018-12-05T01:41:41.724Z,124.20
2018-12-05T01:42:12.894Z,125.38
2018-12-05T01:42:44.034Z,123.20
2018-12-05T01:43:15.140Z,127.53
2018-12-05T01:43:46.266Z,130.80
2018-12-05T01:44:17.371Z,129.10
2018-12-05T01:44:48.495Z,129.90
2018-12-05T01:45:19.602Z,131.60
2018-12-05T01:45:50.718Z,130.18
2018-12-05T01:46:21.871Z,138.55
2018-12-05T01:46:53.032Z,129.57
2018-12-05T01:47:24.149Z,127.02
2018-12-05T01:47:55.284Z,126.62
2018-12-05T01:48:26.386Z,131.05
2018-12-05T01:48:57.516Z,128.40
2018-12-05T01:49:28.626Z,127.47
2018-12-05T01:49:59.733Z,129.18
2018-12-05T01:50:30.852Z,125.75
2018-12-05T01:51:01.959Z,131.75
2018-12-05T01:51:33.122Z,129.25
2018-12-05T01:52:04.227Z,128.68
2018-12-05T01:52:35.395Z,119.62
2018-12-05T01:53:06.509Z,123.82
2018-12-05T01:53:38.457Z,121.67
2018-12-05T01:54:09.581Z,117.75
2018-12-05T01:54:40.685Z,129.10
2018-12-05T01:55:11.790Z,123.50
2018-12-05T01:55:42.929Z,124.40
2018-12-05T01:56:14.051Z,127.22
2018-12-05T01:56:45.154Z,118.22
2018-12-05T01:57:16.274Z,121.67
2018-12-05T01:57:47.394Z,130.18
2018-12-05T01:58:18.516Z,121.30
2018-12-05T01:58:49.640Z,123.58
2018-12-05T01:59:20.745Z,124.78
2018-12-05T01:59:51.840Z,122.95
2018-12-05T02:00:22.984Z,122.45
2018-12-05T02:00:54.083Z,125.07
2018-12-05T02:01:25.255Z,119.72
2018-12-05T02:01:56.405Z,125.80
2018-12-05T02:02:27.597Z,126.92
2018-12-05T02:02:58.762Z,123.33
2018-12-05T02:03:29.881Z,126.58
2018-12-05T02:04:00.994Z,121.53
2018-12-05T02:04:32.097Z,126.12
2018-12-05T02:05:03.230Z,127.17
2018-12-05T02:05:34.376Z,123.10
2018-12-05T02:06:05.481Z,123.50
2018-12-05T02:06:36.573Z,125.22
2018-12-05T02:07:07.678Z,131.75
2018-12-05T02:07:38.784Z,124.25
2018-12-05T02:08:09.882Z,125.62
2018-12-05T02:08:40.984Z,126.72
2018-12-05T02:09:12.097Z,119.35
2018-12-05T02:09:43.228Z,123.90
2018-12-05T02:10:14.331Z,125.50
2018-12-05T02:10:45.487Z,124.05
2018-12-05T02:11:16.602Z,127.55
2018-12-05T02:11:47.746Z,127.58
2018-12-05T02:12:18.895Z,124.58
2018-12-05T02:12:50.001Z,129.85
2018-12-05T02:13:21.121Z,122.70
2018-12-05T02:13:52.217Z,127.60
2018-12-05T02:14:23.341Z,127.62
2018-12-05T02:14:54.454Z,126.75
2018-12-05T02:15:25.568Z,127.10
2018-12-05T02:15:56.728Z,119.85
2018-12-05T02:16:27.833Z,125.60
2018-12-05T02:16:58.973Z,125.90
2018-12-05T02:17:30.133Z,118.30
2018-12-05T02:18:01.244Z,121.15
2018-12-05T02:18:32.355Z,130.78
2018-12-05T02:19:03.512Z,128.10
2018-12-05T02:19:34.752Z,131.90
2018-12-05T02:20:05.855Z,131.87
2018-12-05T02:20:36.970Z,133.10
2018-12-05T02:21:08.079Z,134.55
2018-12-05T02:21:39.187Z,136.10
2018-12-05T02:22:10.301Z,122.55
2018-12-05T02:22:41.408Z,127.78
2018-12-05T02:23:12.572Z,125.20
2018-12-05T02:23:43.686Z,131.70
2018-12-05T02:24:14.812Z,128.25
2018-12-05T02:24:45.958Z,127.87
2018-12-05T02:25:17.098Z,128.40
2018-12-05T02:25:48.257Z,128.47
2018-12-05T02:26:19.400Z,128.32
2018-12-05T02:26:50.507Z,128.62
2018-12-05T02:27:21.613Z,128.15
2018-12-05T02:27:52.729Z,127.38
2018-12-05T02:28:23.885Z,127.07
2018-12-05T02:28:54.997Z,129.45
2018-12-05T02:29:27.249Z,129.90
2018-12-05T02:29:58.394Z,134.12
2018-12-05T02:30:29.545Z,125.18
2018-12-05T02:31:00.673Z,131.97
2018-12-05T02:31:31.801Z,134.22
2018-12-05T02:32:03.968Z,130.95
2018-12-05T02:32:35.078Z,136.90
2018-12-05T02:33:06.194Z,134.40
2018-12-05T02:33:37.320Z,134.12
2018-12-05T02:34:08.456Z,136.68
2018-12-05T02:34:39.573Z,131.95
2018-12-05T02:35:10.749Z,140.20
2018-12-05T02:35:41.857Z,132.78
2018-12-05T02:36:12.974Z,132.55
2018-12-05T02:36:44.089Z,139.10
2018-12-05T02:37:15.204Z,128.93
2018-12-05T02:37:46.332Z,128.85
2018-12-05T02:38:17.447Z,136.55
2018-12-05T02:38:48.566Z,133.80
2018-12-05T02:39:19.691Z,133.40
2018-12-05T02:39:50.877Z,130.40
2018-12-05T02:40:22.026Z,129.32
2018-12-05T02:40:53.171Z,126.78
2018-12-05T02:41:24.276Z,124.20
2018-12-05T02:41:55.387Z,129.68
2018-12-05T02:42:26.501Z,131.15
2018-12-05T02:42:57.651Z,127.95
2018-12-05T02:43:28.856Z,130.78
2018-12-05T02:43:59.972Z,130.90
2018-12-05T02:44:31.097Z,130.35
2018-12-05T02:45:02.300Z,127.75
2018-12-05T02:45:33.575Z,131.07
2018-12-05T02:46:04.681Z,131.65
2018-12-05T02:46:35.782Z,128.53
2018-12-05T02:47:06.927Z,129.80
2018-12-05T02:47:38.070Z,124.33
2018-12-05T02:48:09.186Z,128.68
2018-12-05T02:48:40.308Z,128.10
2018-12-05T02:49:11.421Z,130.70
2018-12-05T02:49:42.525Z,126.75
2018-12-05T02:50:13.642Z,126.38
2018-12-05T02:50:44.747Z,128.72
2018-12-05T02:51:15.863Z,127.05
2018-12-05T02:51:46.970Z,134.72
2018-12-05T02:52:18.091Z,126.65
2018-12-05T02:52:49.237Z,130.95
2018-12-05T02:53:20.358Z,130.15
2018-12-05T02:53:51.476Z,127.55
2018-12-05T02:54:22.622Z,134.95
2018-12-05T02:54:53.737Z,134.52
2018-12-05T02:55:24.836Z,129.35
2018-12-05T02:55:55.950Z,135.95
2018-12-05T02:56:27.096Z,126.67
2018-12-05T02:56:58.224Z,127.20
2018-12-05T02:57:29.339Z,128.57
2018-12-05T02:58:00.522Z,121.05
2018-12-05T02:58:31.701Z,125.58
2018-12-05T02:59:02.814Z,126.40
2018-12-05T02:59:33.921Z,121.35
2018-12-05T03:00:05.047Z,129.25
2018-12-05T03:00:36.164Z,134.07
2018-12-05T03:01:07.309Z,128.57
2018-12-05T03:01:38.422Z,130.07
2018-12-05T03:02:09.583Z,131.65
2018-12-05T03:02:40.745Z,131.72
2018-12-05T03:03:11.854Z,133.67
2018-12-05T03:03:42.974Z,130.93
2018-12-05T03:04:14.084Z,136.35
2018-12-05T03:04:45.218Z,138.70
2018-12-05T03:05:16.327Z,131.30
2018-12-05T03:05:47.437Z,130.90
2018-12-05T03:06:18.545Z,135.85
2018-12-05T03:06:49.670Z,135.00
2018-12-05T03:07:20.794Z,139.70
2018-12-05T03:07:51.976Z,144.17
2018-12-05T03:08:23.186Z,137.52
2018-12-05T03:08:54.357Z,142.20
2018-12-05T03:09:25.516Z,147.25
2018-12-05T03:09:56.619Z,145.30
2018-12-05T03:10:27.748Z,143.70
2018-12-05T03:10:58.864Z,146.65
2018-12-05T03:11:29.981Z,151.78
2018-12-05T03:12:01.092Z,141.28
2018-12-05T03:12:32.211Z,146.45
2018-12-05T03:13:03.339Z,147.32
2018-12-05T03:13:34.456Z,153.75
2018-12-05T03:14:05.586Z,156.85
2018-12-05T03:14:36.740Z,161.22
2018-12-05T03:15:07.869Z,154.05
2018-12-05T03:15:39.037Z,148.53
2018-12-05T03:16:10.149Z,147.00
2018-12-05T03:16:41.267Z,144.07
2018-12-05T03:17:12.368Z,144.70
2018-12-05T03:17:43.475Z,149.77
2018-12-05T03:18:14.580Z,149.77
2018-12-05T03:18:45.726Z,159.63
2018-12-05T03:19:16.842Z,156.45
2018-12-05T03:19:47.985Z,159.75
2018-12-05T03:20:19.147Z,166.07
2018-12-05T03:20:50.270Z,164.70
2018-12-05T03:21:21.543Z,162.18
2018-12-05T03:21:52.685Z,157.57
2018-12-05T03:22:23.795Z,152.02
2018-12-05T03:22:54.920Z,156.72
2018-12-05T03:23:26.046Z,157.32
2018-12-05T03:23:57.154Z,167.72
2018-12-05T03:24:28.273Z,159.30
2018-12-05T03:24:59.421Z,161.65
2018-12-05T03:25:30.540Z,149.42
2018-12-05T03:26:01.683Z,162.50
2018-12-05T03:26:32.837Z,156.20
2018-12-05T03:27:03.995Z,162.95
2018-12-05T03:27:35.114Z,159.67
2018-12-05T03:28:06.297Z,153.15
2018-12-05T03:28:37.409Z,156.93
2018-12-05T03:29:08.534Z,166.25
2018-12-05T03:29:39.636Z,167.10
2018-12-05T03:30:10.763Z,163.80
2018-12-05T03:30:41.924Z,162.10
2018-12-05T03:31:13.106Z,167.30
2018-12-05T03:31:44.221Z,168.78
2018-12-05T03:32:15.363Z,165.92
2018-12-05T03:32:46.530Z,171.32
2018-12-05T03:33:17.700Z,170.53
2018-12-05T03:33:48.829Z,180.82
2018-12-05T03:34:19.946Z,171.00
2018-12-05T03:34:51.068Z,179.97
2018-12-05T03:35:22.180Z,181.22
2018-12-05T03:35:53.293Z,181.28
2018-12-05T03:36:24.402Z,180.72
2018-12-05T03:36:55.558Z,178.62
2018-12-05T03:37:26.683Z,185.78
2018-12-05T03:37:57.830Z,170.65
2018-12-05T03:38:28.971Z,177.95
2018-12-05T03:39:00.074Z,176.53
2018-12-05T03:39:31.189Z,177.20
2018-12-05T03:40:02.306Z,179.10
2018-12-05T03:40:33.534Z,183.52
2018-12-05T03:41:04.681Z,184.35
2018-12-05T03:41:35.822Z,181.85
2018-12-05T03:42:06.929Z,183.12
2018-12-05T03:42:38.044Z,188.50
2018-12-05T03:43:09.178Z,185.28
2018-12-05T03:43:40.285Z,190.65
2018-12-05T03:44:11.399Z,196.80
2018-12-05T03:44:42.511Z,188.05
2018-12-05T03:45:13.637Z,210.72
2018-12-05T03:45:44.793Z,196.90
2018-12-05T03:46:15.922Z,197.00
2018-12-05T03:46:47.078Z,197.32
2018-12-05T03:47:18.189Z,192.25
2018-12-05T03:47:49.293Z,191.57
2018-12-05T03:48:20.396Z,197.85
2018-12-05T03:48:51.498Z,194.45
2018-12-05T03:49:22.615Z,196.32
2018-12-05T03:49:53.850Z,191.80
2018-12-05T03:50:24.957Z,193.00
2018-12-05T03:50:56.063Z,202.65
2018-12-05T03:51:27.241Z,195.97
2018-12-05T03:51:58.351Z,192.85
2018-12-05T03:52:29.469Z,201.35
2018-12-05T03:53:00.573Z,196.82
2018-12-05T03:53:31.730Z,193.17
2018-12-05T03:54:02.845Z,192.25
2018-12-05T03:54:33.969Z,197.57
2018-12-05T03:55:05.078Z,206.10
2018-12-05T03:55:36.178Z,198.47
2018-12-05T03:56:07.286Z,187.85
2018-12-05T03:56:38.442Z,190.95
2018-12-05T03:57:09.550Z,189.18
2018-12-05T03:57:40.675Z,189.72
2018-12-05T03:58:11.820Z,187.30
2018-12-05T03:58:42.932Z,177.27
2018-12-05T03:59:14.045Z,189.20
2018-12-05T03:59:45.162Z,189.35
2018-12-05T04:00:16.291Z,177.70
2018-12-05T04:00:47.427Z,191.62
2018-12-05T04:01:18.536Z,186.73
2018-12-05T04:01:49.695Z,188.70
2018-12-05T04:02:20.853Z,187.22
2018-12-05T04:02:51.965Z,180.05
2018-12-05T04:03:23.083Z,193.62
2018-12-05T04:03:54.248Z,186.92
2018-12-05T04:04:25.361Z,187.05
2018-12-05T04:04:56.465Z,190.03
2018-12-05T04:05:27.578Z,188.18
2018-12-05T04:05:58.681Z,172.87
2018-12-05T04:06:29.823Z,184.40
2018-12-05T04:07:00.928Z,184.60
2018-12-05T04:07:32.075Z,191.90
2018-12-05T04:08:03.195Z,207.22
2018-12-05T04:08:34.318Z,190.10
2018-12-05T04:09:05.431Z,177.07
2018-12-05T04:09:36.543Z,177.47
2018-12-05T04:10:07.651Z,180.57
2018-12-05T04:10:38.768Z,178.53
2018-12-05T04:11:09.884Z,179.47
2018-12-05T04:11:40.993Z,181.00
2018-12-05T04:12:12.145Z,166.88
2018-12-05T04:12:43.261Z,172.20
2018-12-05T04:13:14.373Z,164.03
2018-12-05T04:13:45.500Z,170.97
2018-12-05T04:14:16.608Z,163.52
2018-12-05T04:14:47.708Z,160.82
2018-12-05T04:15:18.822Z,167.22
2018-12-05T04:15:49.932Z,160.63
2018-12-05T04:16:21.051Z,165.57
2018-12-05T04:16:52.160Z,154.07
2018-12-05T04:17:23.303Z,158.40
2018-12-05T04:17:54.411Z,163.87
2018-12-05T04:18:25.547Z,166.53
2018-12-05T04:18:56.665Z,168.22
2018-12-05T04:19:27.823Z,167.85
2018-12-05T04:19:58.932Z,161.35
2018-12-05T04:20:30.054Z,160.55
2018-12-05T04:21:01.211Z,165.30
2018-12-05T04:21:32.327Z,168.32
2018-12-05T04:22:03.453Z,164.07
2018-12-05T04:22:34.576Z,156.97
2018-12-05T04:23:05.692Z,158.70
2018-12-05T04:23:36.801Z,159.78
2018-12-05T04:24:08.003Z,157.55
2018-12-05T04:24:39.157Z,159.00
2018-12-05T04:25:10.279Z,150.22
2018-12-05T04:25:41.390Z,155.35
2018-12-05T04:26:12.538Z,145.10
2018-12-05T04:26:43.651Z,143.43
2018-12-05T04:27:14.759Z,147.17
2018-12-05T04:27:45.906Z,137.47
2018-12-05T04:28:17.017Z,150.03
2018-12-05T04:28:48.115Z,154.32
2018-12-05T04:29:19.240Z,142.20
2018-12-05T04:29:50.360Z,139.92
2018-12-05T04:30:21.468Z,135.05
2018-12-05T04:30:52.589Z,141.75
2018-12-05T04:31:23.733Z,139.07
2018-12-05T04:31:54.860Z,145.40
2018-12-05T04:32:25.974Z,129.27
2018-12-05T04:32:57.101Z,139.72
2018-12-05T04:33:28.226Z,134.00
2018-12-05T04:33:59.381Z,138.03
2018-12-05T04:34:30.492Z,141.95
2018-12-05T04:35:01.621Z,140.92
2018-12-05T04:35:32.746Z,131.18
2018-12-05T04:36:03.870Z,140.82
2018-12-05T04:36:35.017Z,135.18
2018-12-05T04:37:06.125Z,139.30
2018-12-05T04:37:37.235Z,140.80
2018-12-05T04:38:08.333Z,131.35
2018-12-05T04:38:39.440Z,135.15
2018-12-05T04:39:11.138Z,142.07
2018-12-05T04:39:42.246Z,129.10
2018-12-05T04:40:13.351Z,132.10
2018-12-05T04:40:44.491Z,144.00
2018-12-05T04:41:15.625Z,132.50
2018-12-05T04:41:46.808Z,136.62
2018-12-05T04:42:17.925Z,128.87
2018-12-05T04:42:49.047Z,122.75
2018-12-05T04:43:20.156Z,129.93
2018-12-05T04:43:51.279Z,125.82
2018-12-05T04:44:22.385Z,126.33
2018-12-05T04:44:53.494Z,121.57
2018-12-05T04:45:24.633Z,124.97
2018-12-05T04:45:55.752Z,123.90
2018-12-05T04:46:26.867Z,122.33
2018-12-05T04:46:58.036Z,120.62
2018-12-05T04:47:29.144Z,121.02
2018-12-05T04:48:00.257Z,128.65
2018-12-05T04:48:31.361Z,127.12
2018-12-05T04:49:02.474Z,127.53
2018-12-05T04:49:33.587Z,128.95
2018-12-05T04:50:04.696Z,126.82
2018-12-05T04:50:35.810Z,128.00
2018-12-05T04:51:06.912Z,129.93
2018-12-05T04:51:38.027Z,122.67
2018-12-05T04:52:09.181Z,127.82
2018-12-05T04:52:40.291Z,127.12
2018-12-05T04:53:11.434Z,129.72
2018-12-05T04:53:42.545Z,129.63
2018-12-05T04:54:13.658Z,126.30
2018-12-05T04:54:44.764Z,127.10
2018-12-05T04:55:15.899Z,125.38
2018-12-05T04:55:47.019Z,121.37
2018-12-05T04:56:18.132Z,121.40
2018-12-05T04:56:49.253Z,122.82
2018-12-05T04:57:20.372Z,122.22
2018-12-05T04:57:51.477Z,124.12
2018-12-05T04:58:22.625Z,125.22
2018-12-05T04:58:53.733Z,126.45
2018-12-05T04:59:24.854Z,120.90
2018-12-05T04:59:55.968Z,125.42
2018-12-05T05:00:27.138Z,125.70
2018-12-05T05:00:58.264Z,121.10
2018-12-05T05:01:29.374Z,119.62
2018-12-05T05:02:00.538Z,119.45
2018-12-05T05:02:31.681Z,123.70
2018-12-05T05:03:02.792Z,113.83
2018-12-05T05:03:33.905Z,116.42
2018-12-05T05:04:05.029Z,113.40
2018-12-05T05:04:36.132Z,111.17
2018-12-05T05:05:07.244Z,106.45
2018-12-05T05:05:38.349Z,108.17
2018-12-05T05:06:09.449Z,108.17
2018-12-05T05:06:41.779Z,111.30
2018-12-05T05:07:13.309Z,109.83
2018-12-05T05:07:44.561Z,112.25
2018-12-05T05:08:15.672Z,110.08
2018-12-05T05:08:46.806Z,114.37
2018-12-05T05:09:17.932Z,112.95
2018-12-05T05:09:49.049Z,112.30
2018-12-05T05:10:20.192Z,120.10
2018-12-05T05:10:51.302Z,113.62
2018-12-05T05:11:22.414Z,116.05
2018-12-05T05:11:53.534Z,114.00
2018-12-05T05:12:24.669Z,118.67
2018-12-05T05:12:55.789Z,111.50
2018-12-05T05:13:26.946Z,107.97
2018-12-05T05:13:58.067Z,108.15
2018-12-05T05:14:29.189Z,110.40
2018-12-05T05:15:00.311Z,109.60
2018-12-05T05:15:31.419Z,115.67
2018-12-05T05:16:02.554Z,105.37
2018-12-05T05:16:33.672Z,110.20
2018-12-05T05:17:04.792Z,116.15
2018-12-05T05:17:35.918Z,114.08
2018-12-05T05:18:07.039Z,115.40
2018-12-05T05:18:38.200Z,114.55
2018-12-05T05:19:09.330Z,115.72
2018-12-05T05:19:40.442Z,117.22
2018-12-05T05:20:12.037Z,115.95
2018-12-05T05:20:43.410Z,115.65
2018-12-05T05:21:14.520Z,111.75
2018-12-05T05:21:45.645Z,111.85
2018-12-05T05:22:16.809Z,116.50
2018-12-05T05:22:47.931Z,118.28
2018-12-05T05:23:19.056Z,111.00
2018-12-05T05:23:50.188Z,110.32
2018-12-05T05:24:21.296Z,112.47
2018-12-05T05:24:52.552Z,115.00
2018-12-05T05:25:23.661Z,111.83
2018-12-05T05:25:54.783Z,112.00
2018-12-05T05:26:25.901Z,113.62
2018-12-05T05:26:57.016Z,104.32
2018-12-05T05:27:28.152Z,113.00
2018-12-05T05:27:59.280Z,106.87
2018-12-05T05:28:30.393Z,103.87
2018-12-05T05:29:01.500Z,108.20
2018-12-05T05:29:32.615Z,104.90
2018-12-05T05:30:03.749Z,113.83
2018-12-05T05:30:34.880Z,112.45
2018-12-05T05:31:06.005Z,106.95
2018-12-05T05:31:37.134Z,110.50
2018-12-05T05:32:08.278Z,110.50
2018-12-05T05:32:39.395Z,108.45
2018-12-05T05:33:10.508Z,111.62
2018-12-05T05:33:41.620Z,111.10
2018-12-05T05:34:12.731Z,111.05
2018-12-05T05:34:43.838Z,106.37
2018-12-05T05:35:14.946Z,111.12
2018-12-05T05:35:46.101Z,110.92
2018-12-05T05:36:17.208Z,114.15
2018-12-05T05:36:48.309Z,108.87
2018-12-05T05:37:19.484Z,108.45
2018-12-05T05:37:50.647Z,103.95
2018-12-05T05:38:21.850Z,104.35
2018-12-05T05:38:52.962Z,104.35
2018-12-05T05:39:24.076Z,105.63
2018-12-05T05:39:55.176Z,104.65
2018-12-05T05:40:26.279Z,101.27
2018-12-05T05:40:57.387Z,99.25
2018-12-05T05:41:28.498Z,103.87
2018-12-05T05:41:59.605Z,98.65
2018-12-05T05:42:30.724Z,99.00
2018-12-05T05:43:01.837Z,100.65
2018-12-05T05:43:32.962Z,103.12
2018-12-05T05:44:04.077Z,99.97
2018-12-05T05:44:35.228Z,102.27
2018-12-05T05:45:06.340Z,99.83
2018-12-05T05:45:37.449Z,104.67
2018-12-05T05:46:08.570Z,96.57
2018-12-05T05:46:39.674Z,100.97
2018-12-05T05:47:10.779Z,96.55
2018-12-05T05:47:41.919Z,91.42
2018-12-05T05:48:13.057Z,96.92
2018-12-05T05:48:44.169Z,94.62
2018-12-05T05:49:15.281Z,95.28
2018-12-05T05:49:46.434Z,100.07
2018-12-05T05:50:17.565Z,92.80
2018-12-05T05:50:48.668Z,92.35
2018-12-05T05:51:19.801Z,92.17
2018-12-05T05:51:50.926Z,94.13
2018-12-05T05:52:22.033Z,97.20
2018-12-05T05:52:53.195Z,96.40
2018-12-05T05:53:24.289Z,97.37
2018-12-05T05:53:55.398Z,97.02
2018-12-05T05:54:26.592Z,93.67
2018-12-05T05:54:57.779Z,93.03
2018-12-05T05:55:28.892Z,93.97
2018-12-05T05:56:00.004Z,94.95
2018-12-05T05:56:31.121Z,87.62
2018-12-05T05:57:02.291Z,86.72
2018-12-05T05:57:33.441Z,91.02
2018-12-05T05:58:04.558Z,98.15
2018-12-05T05:58:35.688Z,105.32
2018-12-05T05:59:06.824Z,100.20
2018-12-05T05:59:37.953Z,97.88
2018-12-05T06:00:09.068Z,101.22
2018-12-05T06:00:40.182Z,105.40
2018-12-05T06:01:11.298Z,109.65
2018-12-05T06:01:42.450Z,104.10
2018-12-05T06:02:13.570Z,103.00
2018-12-05T06:02:44.676Z,96.97
2018-12-05T06:03:15.786Z,96.47
2018-12-05T06:03:46.927Z,83.33
2018-12-05T06:04:18.056Z,79.53
2018-12-05T06:04:49.155Z,89.60
2018-12-05T06:05:20.265Z,91.02
2018-12-05T06:05:51.374Z,87.67
2018-12-05T06:06:22.715Z,87.82
2018-12-05T06:06:53.881Z,81.67
2018-12-05T06:07:25.006Z,79.60
2018-12-05T06:07:56.119Z,78.42
2018-12-05T06:08:27.336Z,89.90
2018-12-05T06:08:58.454Z,83.92
2018-12-05T06:09:29.553Z,75.37
2018-12-05T06:10:00.661Z,77.47
2018-12-05T06:10:31.776Z,81.08
2018-12-05T06:11:02.873Z,80.20
2018-12-05T06:11:34.009Z,82.70
2018-12-05T06:12:05.104Z,74.92
2018-12-05T06:12:36.427Z,77.08
2018-12-05T06:13:07.663Z,78.57
2018-12-05T06:13:38.763Z,78.05
2018-12-05T06:14:09.871Z,82.62
2018-12-05T06:14:40.973Z,77.90
2018-12-05T06:15:12.094Z,81.53
2018-12-05T06:15:43.219Z,76.15
2018-12-05T06:16:14.620Z,78.78
2018-12-05T06:16:45.797Z,84.00
2018-12-05T06:17:16.917Z,79.37
2018-12-05T06:17:48.380Z,72.20
2018-12-05T06:18:19.573Z,76.67
2018-12-05T06:18:50.754Z,84.83
2018-12-05T06:19:21.873Z,76.07
2018-12-05T06:19:52.986Z,77.00
2018-12-05T06:20:24.113Z,77.58
2018-12-05T06:20:55.216Z,81.45
2018-12-05T06:21:26.337Z,85.15
2018-12-05T06:21:57.488Z,80.25
2018-12-05T06:22:28.595Z,73.92
2018-12-05T06:22:59.701Z,75.03
2018-12-05T06:23:30.793Z,77.53
2018-12-05T06:24:01.911Z,75.50
2018-12-05T06:24:33.001Z,87.17
2018-12-05T06:25:04.104Z,85.55
2018-12-05T06:25:35.218Z,80.62
2018-12-05T06:26:06.339Z,76.37
2018-12-05T06:26:37.442Z,89.13
2018-12-05T06:27:09.301Z,86.57
2018-12-05T06:27:40.404Z,82.78
2018-12-05T06:28:11.539Z,80.70
2018-12-05T06:28:42.636Z,79.07
2018-12-05T06:29:13.743Z,81.32
2018-12-05T06:29:44.845Z,77.60
2018-12-05T06:30:15.981Z,79.95